createdAt,value
2022-08-16T00:02:33.024Z,97718.75
2022-08-16T00:05:00.497Z,97715.25
2022-08-16T00:07:29.502Z,97714.25
2022-08-16T00:09:57.793Z,97702.72
2022-08-16T00:12:28.436Z,97711.72
2022-08-16T00:14:57.210Z,97692.06
2022-08-16T00:17:25.540Z,97707.38
2022-08-16T00:19:55.186Z,97707.38
2022-08-16T00:22:24.760Z,97708.25
2022-08-16T00:24:54.545Z,97706.56
2022-08-16T00:27:22.716Z,97705.75
2022-08-16T00:30:08.754Z,97700.59
2022-08-16T00:32:44.206Z,97715.56
2022-08-16T00:35:15.770Z,97709.41
2022-08-16T00:37:56.303Z,97712.09
2022-08-16T00:40:34.467Z,97708.75
2022-08-16T00:43:19.127Z,97714.06
2022-08-16T00:46:33.184Z,97712.22
2022-08-16T00:48:53.848Z,97715.91
2022-08-16T00:51:23.514Z,97715.91
2022-08-16T00:53:53.216Z,97717.72
2022-08-16T00:56:56.876Z,97707.06
2022-08-16T00:59:15.282Z,97715.91
2022-08-16T01:01:44.765Z,97715.91
2022-08-16T01:04:29.646Z,97715.91
2022-08-16T01:07:03.761Z,97719.59
2022-08-16T01:09:37.362Z,97718.72
2022-08-16T01:12:08.498Z,97718.72
2022-08-16T01:14:43.605Z,97720.56
2022-08-16T01:17:14.524Z,97723.25
2022-08-16T01:19:50.032Z,97726.91
2022-08-16T01:22:47.062Z,97727.75
2022-08-16T01:25:22.125Z,97716.22
2022-08-16T01:27:52.802Z,97721.75
2022-08-16T01:30:27.498Z,97721.94
2022-08-16T01:33:14.157Z,97718.22
2022-08-16T01:35:52.896Z,97718.22
2022-08-16T01:38:28.450Z,97719.09
2022-08-16T01:41:03.544Z,97720.06
2022-08-16T01:43:33.533Z,97723.75
2022-08-16T01:46:30.160Z,97707.72
2022-08-16T01:49:02.487Z,97714.06
2022-08-16T01:51:30.316Z,97715.75
2022-08-16T01:53:58.304Z,97713.06
2022-08-16T01:56:30.236Z,97718.56
2022-08-16T01:59:04.411Z,97718.56
2022-08-16T02:01:32.878Z,97718.56
2022-08-16T02:04:10.425Z,97720.44
2022-08-16T02:06:46.078Z,97708.91
2022-08-16T02:09:19.868Z,97715.09
2022-08-16T02:11:54.686Z,97726.59
2022-08-16T02:14:27.617Z,97726.75
2022-08-16T02:16:58.508Z,97721.41
2022-08-16T02:19:58.457Z,97720.56
2022-08-16T02:22:33.795Z,97704.41
2022-08-16T02:25:06.745Z,97709.91
2022-08-16T02:27:35.197Z,97709.09
2022-08-16T02:30:07.541Z,97717.09
2022-08-16T02:32:50.455Z,97711.06
2022-08-16T02:35:23.137Z,97718.06
2022-08-16T02:37:52.961Z,97716.22
2022-08-16T02:40:24.489Z,97714.59
2022-08-16T02:42:53.586Z,97714.59
2022-08-16T02:45:24.871Z,97716.22
2022-08-16T02:48:00.183Z,97706.91
2022-08-16T02:50:54.814Z,97712.91
2022-08-16T02:53:18.015Z,97712.06
2022-08-16T02:55:46.182Z,97710.25
2022-08-16T02:58:18.268Z,97710.25
2022-08-16T03:00:45.456Z,97708.59
2022-08-16T03:03:12.723Z,97712.06
2022-08-16T03:05:50.047Z,97716.56
2022-08-16T03:08:50.466Z,97724.59
2022-08-16T03:11:16.692Z,97723.59
2022-08-16T03:13:47.997Z,97728.06
2022-08-16T03:16:36.610Z,97713.91
2022-08-16T03:19:07.677Z,97720.06
2022-08-16T03:21:37.397Z,97720.06
2022-08-16T03:24:28.533Z,97713.91
2022-08-16T03:27:02.724Z,97720.41
2022-08-16T03:29:32.957Z,97724.59
2022-08-16T03:32:03.380Z,97723.72
2022-08-16T03:34:33.321Z,97722.91
2022-08-16T03:37:00.532Z,97723.91
2022-08-16T03:39:27.689Z,97730.22
2022-08-16T03:41:59.767Z,97736.41
2022-08-16T03:44:44.429Z,97736.41
2022-08-16T03:47:18.547Z,97745.41
2022-08-16T03:49:51.200Z,97746.22
2022-08-16T03:52:23.672Z,97747.91
2022-08-16T03:54:58.044Z,97745.41
2022-08-16T03:57:31.798Z,97745.41
2022-08-16T04:00:20.301Z,97743.91
2022-08-16T04:03:09.613Z,97742.06
2022-08-16T04:05:47.254Z,97746.56
2022-08-16T04:08:22.495Z,97744.06
2022-08-16T04:13:59.270Z,97745.03
2022-08-16T04:16:09.344Z,97753.88
2022-08-16T04:19:02.233Z,97756.53
2022-08-16T04:21:32.074Z,97755.72
2022-08-16T04:24:00.737Z,97758.38
2022-08-16T04:26:30.754Z,97754.84
2022-08-16T04:29:17.240Z,97751.38
2022-08-16T04:31:56.385Z,97756.69
2022-08-16T04:34:30.107Z,97762.84
2022-08-16T04:37:00.995Z,97752.03
2022-08-16T04:39:36.532Z,97761.22
2022-08-16T04:42:11.444Z,97744.19
2022-08-16T04:44:53.959Z,97764.69
2022-08-16T04:47:31.609Z,97755.03
2022-08-16T04:50:15.441Z,97756.88
2022-08-16T04:53:03.176Z,97755.88
2022-08-16T04:55:38.262Z,97769.22
2022-08-16T04:58:45.901Z,97755.88
2022-08-16T05:00:57.372Z,97765.69
2022-08-16T05:03:24.289Z,97768.34
2022-08-16T05:05:59.120Z,97755.03
2022-08-16T05:08:31.300Z,97761.22
2022-08-16T05:11:08.300Z,97778.03
2022-08-16T05:13:41.337Z,97756.03
2022-08-16T05:16:31.376Z,97771.72
2022-08-16T05:19:06.284Z,97769.03
2022-08-16T05:21:41.091Z,97771.72
2022-08-16T05:24:10.662Z,97779.69
2022-08-16T05:26:43.105Z,97778.72
2022-08-16T05:29:14.749Z,97775.19
2022-08-16T05:31:56.864Z,97770.72
2022-08-16T05:34:25.071Z,97788.38
2022-08-16T05:36:57.225Z,97778.56
2022-08-16T05:39:29.285Z,97782.91
2022-08-16T05:42:00.780Z,97737.00
2022-08-16T05:44:28.365Z,97773.06
2022-08-16T05:47:00.342Z,97779.91
2022-08-16T05:49:38.364Z,97785.06
2022-08-16T05:52:13.620Z,97794.72
2022-08-16T05:54:47.486Z,97797.56
2022-08-16T05:57:26.111Z,97786.91
2022-08-16T06:00:07.100Z,97792.75
2022-08-16T06:02:44.671Z,97782.06
2022-08-16T06:05:30.746Z,97786.59
2022-08-16T06:08:04.558Z,97777.56
2022-08-16T06:10:35.636Z,97778.41
2022-08-16T06:13:04.315Z,97789.09
2022-08-16T06:15:31.736Z,97790.75
2022-08-16T06:17:59.411Z,97789.75
2022-08-16T06:20:35.176Z,97795.09
2022-08-16T06:23:18.091Z,97791.56
2022-08-16T06:26:07.955Z,97789.25
2022-08-16T06:28:39.606Z,97795.91
2022-08-16T06:31:13.571Z,97800.25
2022-08-16T06:33:44.736Z,97807.41
2022-08-16T06:36:14.287Z,97806.41
2022-08-16T06:38:56.085Z,97802.06
2022-08-16T06:41:46.184Z,97797.75
2022-08-16T06:44:38.716Z,97805.41
2022-08-16T06:47:17.038Z,97811.75
2022-08-16T06:49:52.720Z,97812.59
2022-08-16T06:52:59.865Z,97805.59
2022-08-16T06:55:13.622Z,97793.91
2022-08-16T06:57:46.147Z,97794.94
2022-08-16T07:00:24.055Z,97804.59
2022-08-16T07:03:27.419Z,97812.44
2022-08-16T07:05:52.319Z,97814.91
2022-08-16T07:08:27.596Z,97815.91
2022-08-16T07:10:55.517Z,97805.09
2022-08-16T07:13:51.708Z,97810.44
2022-08-16T07:16:15.357Z,97822.75
2022-08-16T07:21:07.864Z,97761.00
2022-08-16T07:23:39.256Z,97831.44
2022-08-16T07:26:24.878Z,97831.44
2022-08-16T07:28:55.175Z,97834.09
2022-08-16T07:31:22.921Z,97829.09
2022-08-16T07:33:51.899Z,97839.25
2022-08-16T07:36:25.752Z,97842.78
2022-08-16T07:38:53.179Z,97838.25
2022-08-16T07:41:21.957Z,97838.25
2022-08-16T07:43:55.757Z,97833.78
2022-08-16T07:46:37.465Z,97839.13
2022-08-16T07:49:14.552Z,97833.59
2022-08-16T07:51:41.558Z,97830.09
2022-08-16T07:54:17.003Z,97837.09
2022-08-16T07:56:53.132Z,97838.78
2022-08-16T07:59:20.288Z,97835.94
2022-08-16T08:01:47.658Z,97831.63
2022-08-16T08:04:20.299Z,97835.09
2022-08-16T08:06:51.140Z,97835.94
2022-08-16T08:09:18.703Z,97838.47
2022-08-16T08:12:01.254Z,97835.78
2022-08-16T08:14:37.536Z,97833.13
2022-08-16T08:17:08.631Z,97848.09
2022-08-16T08:19:37.361Z,97842.78
2022-08-16T08:22:21.985Z,97843.63
2022-08-16T08:24:53.789Z,97843.63
2022-08-16T08:27:26.996Z,97844.44
2022-08-16T08:30:49.969Z,97845.28
2022-08-16T08:32:58.023Z,97846.13
2022-08-16T08:35:30.471Z,97846.97
2022-08-16T08:37:58.923Z,97850.47
2022-08-16T08:40:30.016Z,97845.13
2022-08-16T08:43:00.622Z,97846.97
2022-08-16T08:45:48.824Z,97848.63
2022-08-16T08:48:34.219Z,97848.63
2022-08-16T08:51:15.314Z,97854.63
2022-08-16T08:53:58.047Z,97851.97
2022-08-16T08:56:32.305Z,97863.44
2022-08-16T08:59:13.091Z,97850.13
2022-08-16T09:01:56.613Z,97857.28
2022-08-16T09:04:27.473Z,97865.13
2022-08-16T09:06:55.715Z,97863.31
2022-08-16T09:09:23.980Z,97873.00
2022-08-16T09:12:04.226Z,97873.00
2022-08-16T09:17:11.648Z,97865.63
2022-08-16T09:19:44.428Z,97864.63
2022-08-16T09:22:19.797Z,97863.66
2022-08-16T09:24:53.633Z,97864.47
2022-08-16T09:27:25.353Z,97866.13
2022-08-16T09:30:00.029Z,97864.16
2022-08-16T09:32:30.577Z,97863.28
2022-08-16T09:34:59.427Z,97869.13
2022-08-16T09:37:29.677Z,97846.78
2022-08-16T09:39:59.509Z,97866.97
2022-08-16T09:42:27.712Z,97870.31
2022-08-16T09:45:11.908Z,97872.81
2022-08-16T09:47:56.538Z,97868.34
2022-08-16T09:50:36.743Z,97857.81
2022-08-16T09:53:15.440Z,97861.81
2022-08-16T09:58:10.618Z,97847.53
2022-08-16T10:00:44.145Z,97847.34
2022-08-16T10:03:11.803Z,97856.03
2022-08-16T10:05:38.591Z,97854.34
2022-08-16T10:08:25.803Z,97864.03
2022-08-16T10:11:11.103Z,97865.53
2022-08-16T10:13:39.601Z,97868.22
2022-08-16T10:18:56.319Z,97871.88
2022-08-16T10:21:09.552Z,97874.88
2022-08-16T10:23:36.705Z,97882.69
2022-08-16T10:27:19.015Z,97877.19
2022-08-16T10:28:54.089Z,97869.84
2022-08-16T10:31:44.153Z,97871.53
2022-08-16T10:34:30.980Z,97870.72
2022-08-16T10:36:55.076Z,97870.38
2022-08-16T10:39:21.690Z,97863.69
2022-08-16T10:41:51.219Z,97867.69
2022-08-16T10:44:17.868Z,97870.38
2022-08-16T10:46:45.233Z,97872.84
2022-08-16T10:49:13.096Z,97858.50
2022-08-16T10:52:02.836Z,97849.19
2022-08-16T10:54:32.942Z,97836.16
2022-08-16T10:57:01.348Z,97839.50
2022-08-16T10:59:45.985Z,97843.00
2022-08-16T11:03:37.751Z,97838.31
2022-08-16T11:05:14.160Z,97836.47
2022-08-16T11:07:52.011Z,97826.66
2022-08-16T11:13:57.274Z,97818.28
2022-08-16T11:19:05.554Z,97817.09
2022-08-16T11:21:37.665Z,97815.28
2022-08-16T11:24:41.558Z,97825.97
2022-08-16T11:27:23.463Z,97821.81
2022-08-16T11:29:54.977Z,97822.94
2022-08-16T11:32:31.228Z,97825.63
2022-08-16T11:35:10.587Z,97829.97
2022-08-16T11:40:52.811Z,97819.94
2022-08-16T11:43:22.887Z,97827.13
2022-08-16T11:45:54.041Z,97817.28
2022-08-16T11:48:25.156Z,97809.78
2022-08-16T11:50:52.537Z,97820.59
2022-08-16T11:53:21.089Z,97816.94
2022-08-16T11:55:54.471Z,97800.91
2022-08-16T11:58:25.387Z,97811.41
2022-08-16T12:00:53.801Z,97792.56
2022-08-16T12:03:34.622Z,97807.72
2022-08-16T12:06:11.174Z,97805.06
2022-08-16T12:08:53.111Z,97804.06
2022-08-16T12:11:19.679Z,97797.72
2022-08-16T12:13:49.356Z,97799.09
2022-08-16T12:16:20.669Z,97798.53
2022-08-16T12:21:21.085Z,97788.72
2022-08-16T12:23:49.248Z,97800.03
2022-08-16T12:26:17.204Z,97803.56
2022-08-16T12:28:55.908Z,97806.06
2022-08-16T12:31:24.536Z,97803.38
2022-08-16T12:33:54.591Z,97805.06
2022-08-16T12:36:26.218Z,97809.56
2022-08-16T12:38:56.999Z,97807.53
2022-08-16T12:41:24.575Z,97827.09
2022-08-16T12:43:57.268Z,97819.09
2022-08-16T12:46:28.616Z,97822.56
2022-08-16T12:49:00.160Z,97822.41
2022-08-16T12:51:59.225Z,97822.41
2022-08-16T12:54:23.922Z,97817.91
2022-08-16T12:56:50.874Z,97810.72
2022-08-16T12:59:20.454Z,97808.03
2022-08-16T13:01:47.974Z,97802.88
2022-08-16T13:04:20.222Z,97808.03
2022-08-16T13:06:48.908Z,97805.22
2022-08-16T13:09:26.365Z,97813.38
2022-08-16T13:12:17.609Z,97819.44
2022-08-16T13:14:45.144Z,97821.25
2022-08-16T13:17:18.695Z,97824.78
2022-08-16T13:22:03.294Z,97821.75
2022-08-16T13:24:29.981Z,97819.91
2022-08-16T13:26:56.762Z,97817.25
2022-08-16T13:29:23.620Z,97813.59
2022-08-16T13:31:50.500Z,97745.06
2022-08-16T13:34:18.763Z,97813.59
2022-08-16T13:36:49.281Z,97826.94
2022-08-16T13:39:18.075Z,97824.91
2022-08-16T13:41:44.792Z,97827.75
2022-08-16T13:44:21.229Z,97826.25
2022-08-16T13:46:47.835Z,97832.09
2022-08-16T13:49:14.660Z,97840.94
2022-08-16T13:51:41.296Z,97841.78
2022-08-16T13:54:08.171Z,97841.78
2022-08-16T13:56:39.655Z,97837.25
2022-08-16T13:59:20.643Z,97834.78
2022-08-16T14:01:54.536Z,97838.25
2022-08-16T14:04:28.138Z,97842.63
2022-08-16T14:06:57.137Z,97840.78
2022-08-16T14:09:24.548Z,97826.75
2022-08-16T14:11:54.450Z,97818.56
2022-08-16T14:14:29.297Z,97813.22
2022-08-16T14:17:01.613Z,97812.22
2022-08-16T14:19:29.820Z,97789.19
2022-08-16T14:22:15.092Z,97797.19
2022-08-16T14:24:47.707Z,97798.69
2022-08-16T14:27:17.093Z,97792.72
2022-08-16T14:29:45.159Z,97811.22
2022-08-16T14:32:33.644Z,97821.91
2022-08-16T14:35:10.998Z,97827.25
2022-08-16T14:37:39.907Z,97821.91
2022-08-16T14:40:13.708Z,97839.75
2022-08-16T14:42:41.496Z,97846.78
2022-08-16T14:45:13.420Z,97835.28
2022-08-16T14:47:40.684Z,97838.75
2022-08-16T14:50:13.008Z,97833.41
2022-08-16T14:52:55.132Z,97828.06
2022-08-16T14:57:54.597Z,97817.38
2022-08-16T15:00:33.013Z,97817.38
2022-08-16T15:03:04.592Z,97806.69
2022-08-16T15:05:32.226Z,97807.56
2022-08-16T15:07:59.105Z,97810.03
2022-08-16T15:11:41.944Z,97823.41
2022-08-16T15:16:35.436Z,97819.88
2022-08-16T15:19:03.473Z,97825.22
2022-08-16T15:21:30.749Z,97814.06
2022-08-16T15:23:58.803Z,97828.94
2022-08-16T15:26:42.627Z,97815.22
2022-08-16T15:29:12.030Z,97833.41
2022-08-16T15:31:44.388Z,97829.06
2022-08-16T15:34:22.122Z,97834.28
2022-08-16T15:36:53.120Z,97835.28
2022-08-16T15:39:30.483Z,97843.94
2022-08-16T15:42:11.057Z,97840.25
2022-08-16T15:44:50.880Z,97836.44
2022-08-16T15:47:25.965Z,97841.13
2022-08-16T15:49:55.581Z,97854.47
2022-08-16T15:52:34.557Z,97850.63
2022-08-16T15:55:07.400Z,97859.63
2022-08-16T15:57:41.543Z,97861.63
2022-08-16T16:00:20.627Z,97859.44
2022-08-16T16:02:49.312Z,97862.81
2022-08-16T16:05:17.043Z,97861.97
2022-08-16T16:07:56.724Z,97859.31
2022-08-16T16:10:32.077Z,97855.59
2022-08-16T16:13:01.668Z,97859.31
2022-08-16T16:15:32.961Z,97853.97
2022-08-16T16:18:09.049Z,97859.13
2022-08-16T16:20:39.654Z,97854.78
2022-08-16T16:23:10.459Z,97852.09
2022-08-16T16:25:38.851Z,97849.94
2022-08-16T16:28:12.706Z,97858.13
2022-08-16T16:30:56.540Z,97865.28
2022-08-16T16:33:24.956Z,97866.16
2022-08-16T16:35:55.698Z,97872.31
2022-08-16T16:38:28.737Z,97866.16
2022-08-16T16:40:55.897Z,97871.50
2022-08-16T16:43:26.084Z,97866.97
2022-08-16T16:45:58.794Z,97871.50
2022-08-16T16:48:34.386Z,97853.78
2022-08-16T16:51:09.445Z,97866.97
2022-08-16T16:53:40.962Z,97867.78
2022-08-16T16:56:19.317Z,97865.97
2022-08-16T16:59:00.939Z,97876.66
2022-08-16T17:01:56.682Z,97870.63
2022-08-16T17:04:27.436Z,97881.81
2022-08-16T17:07:01.473Z,97877.84
2022-08-16T17:09:28.343Z,97882.81
2022-08-16T17:11:56.951Z,97884.50
2022-08-16T17:14:33.313Z,97885.34
2022-08-16T17:17:06.514Z,97888.03
2022-08-16T17:19:33.982Z,97892.50
2022-08-16T17:22:14.303Z,97878.16
2022-08-16T17:24:50.768Z,97902.19
2022-08-16T17:27:33.156Z,97906.56
2022-08-16T17:30:14.917Z,97903.88
2022-08-16T17:35:37.140Z,97902.19
2022-08-16T17:38:06.970Z,97911.72
2022-08-16T17:39:27.125Z,97911.91
2022-08-16T17:40:47.064Z,97909.03
2022-08-16T17:43:32.339Z,97913.22
2022-08-16T17:45:59.383Z,97912.38
2022-08-16T17:48:27.081Z,97919.56
2022-08-16T17:50:54.999Z,97914.22
2022-08-16T17:53:22.132Z,97914.38
2022-08-16T17:55:50.451Z,97899.53
2022-08-16T17:58:22.624Z,97914.06
2022-08-16T18:00:53.586Z,97917.75
2022-08-16T18:04:06.865Z,97917.06
2022-08-16T18:06:20.873Z,97916.41
2022-08-16T18:08:48.356Z,97912.25
2022-08-16T18:11:26.012Z,97913.25
2022-08-16T18:13:54.844Z,97913.41
2022-08-16T18:16:21.550Z,97912.25
2022-08-16T18:18:48.232Z,97910.72
2022-08-16T18:21:33.770Z,97910.72
2022-08-16T18:24:00.795Z,97919.09
2022-08-16T18:26:27.525Z,97916.75
2022-08-16T18:28:54.303Z,97919.41
2022-08-16T18:31:20.951Z,97919.78
2022-08-16T18:33:47.812Z,97923.44
2022-08-16T18:36:20.396Z,97924.44
2022-08-16T18:38:49.365Z,97923.78
2022-08-16T18:41:17.064Z,97934.59
2022-08-16T18:44:14.145Z,97922.41
2022-08-16T18:46:30.572Z,97930.59
2022-08-16T18:48:57.547Z,97924.75
2022-08-16T18:51:25.509Z,97924.94
2022-08-16T18:53:52.968Z,97944.81
2022-08-16T18:56:19.800Z,97915.59
2022-08-16T18:58:46.427Z,97932.63
2022-08-16T19:01:13.467Z,97936.47
2022-08-16T19:03:40.336Z,97938.28
2022-08-16T19:06:14.209Z,97942.13
2022-08-16T19:08:43.802Z,97946.97
2022-08-16T19:11:14.908Z,97948.81
2022-08-16T19:13:44.235Z,97941.97
2022-08-16T19:16:12.490Z,97944.97
2022-08-16T19:18:39.478Z,97954.13
2022-08-16T19:21:07.986Z,97950.97
2022-08-16T19:23:37.299Z,97950.28
2022-08-16T19:26:24.574Z,97954.28
2022-08-16T19:28:58.554Z,97951.13
2022-08-16T19:31:34.021Z,97949.63
2022-08-16T19:34:02.137Z,97954.28
2022-08-16T19:36:35.954Z,97956.44
2022-08-16T19:39:06.910Z,97958.44
2022-08-16T19:41:40.873Z,97968.28
2022-08-16T19:44:08.133Z,97949.06
2022-08-16T19:46:35.691Z,97975.91
2022-08-16T19:49:03.007Z,97973.41
2022-08-16T19:51:30.087Z,97968.25
2022-08-16T19:53:56.809Z,97971.06
2022-08-16T19:56:25.761Z,97974.06
2022-08-16T19:59:17.551Z,97969.03
2022-08-16T20:01:42.225Z,97978.88
2022-08-16T20:04:12.298Z,97974.84
2022-08-16T20:06:40.336Z,97975.88
2022-08-16T20:09:07.055Z,97980.53
2022-08-16T20:11:35.341Z,97990.53
2022-08-16T20:14:02.716Z,97994.19
2022-08-16T20:16:29.445Z,97995.34
2022-08-16T20:18:56.144Z,97987.50
2022-08-16T20:21:22.918Z,97993.00
2022-08-16T20:23:49.517Z,97978.81
2022-08-16T20:26:16.382Z,97994.19
2022-08-16T20:28:52.525Z,97998.81
2022-08-16T20:31:24.062Z,97997.16
2022-08-16T20:33:52.236Z,98003.47
2022-08-16T20:36:19.091Z,98000.47
2022-08-16T20:38:47.699Z,98011.13
2022-08-16T20:41:16.184Z,98019.31
2022-08-16T20:43:43.338Z,98003.59
2022-08-16T20:46:10.638Z,98008.06
2022-08-16T20:48:37.223Z,98018.25
2022-08-16T20:51:04.193Z,98021.91
2022-08-16T20:53:30.882Z,98019.41
2022-08-16T20:55:57.674Z,98012.41
2022-08-16T20:58:24.246Z,98023.25
2022-08-16T21:00:50.958Z,98022.56
2022-08-16T21:03:17.593Z,98028.88
2022-08-16T21:05:45.302Z,98017.38
2022-08-16T21:10:41.533Z,98016.88
2022-08-16T21:13:13.552Z,98017.81
2022-08-16T21:15:40.213Z,98019.66
2022-08-16T21:18:06.815Z,98023.31
2022-08-16T21:20:34.040Z,98025.31
2022-08-16T21:23:05.729Z,98023.63
2022-08-16T21:25:32.989Z,98029.28
2022-08-16T21:28:38.966Z,98028.59
2022-08-16T21:30:49.398Z,98038.75
2022-08-16T21:33:18.799Z,98029.06
2022-08-16T21:35:47.695Z,98015.34
2022-08-16T21:38:30.240Z,98033.91
2022-08-16T21:41:00.112Z,98011.16
2022-08-16T21:43:31.712Z,98008.66
2022-08-16T21:45:59.005Z,98025.84
2022-08-16T21:48:35.177Z,98024.16
2022-08-16T21:51:05.387Z,98020.97
2022-08-16T21:53:33.257Z,98023.81
2022-08-16T21:56:01.194Z,98023.13
2022-08-16T21:58:28.485Z,98018.94
2022-08-16T22:00:55.812Z,98004.03
2022-08-16T22:03:23.443Z,98012.41
2022-08-16T22:06:05.875Z,98012.56
2022-08-16T22:08:45.660Z,98014.56
2022-08-16T22:11:22.676Z,98011.22
2022-08-16T22:13:57.328Z,98010.84
2022-08-16T22:16:26.597Z,98006.34
2022-08-16T22:18:53.276Z,98009.16
2022-08-16T22:21:20.245Z,98012.13
2022-08-16T22:23:55.178Z,98005.97
2022-08-16T22:26:30.142Z,98007.78
2022-08-16T22:28:59.794Z,98011.47
2022-08-16T22:31:27.526Z,98006.97
2022-08-16T22:33:56.596Z,97998.56
2022-08-16T22:36:28.174Z,98006.44
2022-08-16T22:38:58.087Z,98002.91
2022-08-16T22:41:25.863Z,98003.91
2022-08-16T22:43:52.572Z,97995.06
2022-08-16T22:46:19.620Z,98002.22
2022-08-16T22:48:50.391Z,97987.22
2022-08-16T22:51:19.184Z,97999.84
2022-08-16T22:53:45.866Z,97993.88
2022-08-16T22:56:12.756Z,97985.81
2022-08-16T22:58:39.643Z,98000.19
2022-08-16T23:01:08.334Z,97999.41
2022-08-16T23:03:36.008Z,98003.16
2022-08-16T23:06:06.488Z,97996.75
2022-08-16T23:08:39.569Z,97996.63
2022-08-16T23:11:14.537Z,97991.38
2022-08-16T23:13:49.969Z,97992.38
2022-08-16T23:16:34.276Z,97989.94
2022-08-16T23:19:07.096Z,97985.81
2022-08-16T23:21:35.420Z,97986.16
2022-08-16T23:24:02.059Z,97992.88
2022-08-16T23:26:43.793Z,97985.38
2022-08-16T23:29:23.864Z,97994.06
2022-08-16T23:31:53.834Z,97992.91
2022-08-16T23:34:21.969Z,97989.41
2022-08-16T23:36:48.581Z,97998.91
2022-08-16T23:39:15.225Z,97999.94
2022-08-16T23:41:41.926Z,97995.25
2022-08-16T23:44:44.148Z,97993.44
2022-08-16T23:46:55.596Z,97989.59
2022-08-16T23:49:58.439Z,97991.28
2022-08-16T23:52:10.130Z,97992.09
2022-08-16T23:54:37.098Z,97987.59
2022-08-16T23:57:03.888Z,97992.09
2022-08-16T23:59:31.766Z,97998.94
